Main page
METAR-TAF:

METAR-TAF

Airports :

Ilorin International Airport

Ilorin, Nigeria

latitude: 08-29N, longitude: 004-35E, elevation: 308 m

Current weather observation

The report was made 2 hours and 57 minutes ago, at 20:00 UTC
Calm wind
Temperature 27°C
Humidity 66%
Pressure 1013 hPa
Visibility 10 km or more
no clouds below 1500 m and no cumulonimbus

METAR: DNIL 282000Z 00000KT CAVOK 27/20 Q1013

Time: 23:57 (22:57 UTC)

Forecast

The report was made 5 hours and 57 minutes ago, at 17:00 UTC
Forecast valid from 28 at 18 UTC to 29 at 24 UTC
Wind 8 kt from the Northeast
Visibility 10 km or more
no clouds below 1500 m and no cumulonimbus
Temporary
from 28 at 19 UTC to 28 at 23 UTC
Few clouds at a height of 1400 ft
Few clouds at a height of 2100 ft, Cumulonimbus.
thunderstorm
Becoming
from 28 at 23 UTC to 29 at 01 UTC
Wind 2 kt from variable directions
Visibility 10 km or more
no clouds below 1500 m and no cumulonimbus

TAF: DNIL 281700Z 2818/2924 05008KT CAVOK TEMPO 2819/2823 TS FEW014 FEW021CB BECMG 2823/2901 VRB02KT CAVOK

Weather observations and forecasts of more than 4000 airports (METAR and TAF reports).

The available stations are represented by yellow and red dots on the map.

Hover mouse over dot to see the name of the station.

Then click to see weather observations and forecasts.

To change the map : click on the green buttons with a black cross to zoom in, on the green button with a dash to zoom out, or on the green arrows for adjacent maps.


METAR-TAF: